Time;durP1;ratioP1;P1;durP2;ratioP2;P2;SDS_P1;SDS_P2;PMS_P1;PMS_P2;Temp;Humidity;BMP_temperature;BMP_pressure;BME280_temperature;BME280_humidity;BME280_pressure;Samples;Min_cycle;Max_cycle;Signal;HPM_P1;HPM_P2
2023/03/25 00:02:26;;;;;;;9.68;7.13;;;;;;;15.11;60.03;99460.75;5064058;28;20032;-70
2023/03/25 00:04:52;;;;;;;8.10;7.05;;;;;;;14.99;60.39;99464.94;5052588;28;20050;-70
2023/03/25 00:07:19;;;;;;;8.73;6.57;;;;;;;14.87;60.77;99458.31;5053374;28;20017;-70
2023/03/25 00:09:46;;;;;;;10.10;7.05;;;;;;;14.82;61.05;99458.84;5064896;28;20020;-70
2023/03/25 00:12:13;;;;;;;8.80;6.30;;;;;;;14.79;61.29;99464.59;5057519;28;20068;-70
2023/03/25 00:14:38;;;;;;;9.20;7.70;;;;;;;14.71;61.48;99456.59;5054250;28;20033;-70
2023/03/25 00:17:05;;;;;;;8.25;6.63;;;;;;;14.70;61.92;99463.00;5060174;28;20036;-70
2023/03/25 00:19:32;;;;;;;9.13;7.32;;;;;;;14.71;62.51;99443.09;5058531;28;20055;-70
2023/03/25 00:21:58;;;;;;;9.07;7.18;;;;;;;14.63;62.24;99448.56;5058375;28;20029;-70
2023/03/25 00:24:23;;;;;;;10.02;6.90;;;;;;;14.57;62.97;99443.06;5062551;28;20028;-70
2023/03/25 00:26:49;;;;;;;11.80;8.55;;;;;;;14.50;62.86;99434.84;5063502;28;20021;-70
2023/03/25 00:29:15;;;;;;;12.25;7.75;;;;;;;14.46;63.20;99436.22;5053844;28;20025;-64
2023/03/25 00:31:42;;;;;;;9.48;7.97;;;;;;;14.40;63.80;99430.69;5060405;28;20028;-64
2023/03/25 00:34:08;;;;;;;10.55;8.45;;;;;;;14.37;64.50;99452.63;5053106;28;20106;-64
2023/03/25 00:36:37;;;;;;;10.55;8.13;;;;;;;14.39;64.15;99446.06;5057827;28;20036;-64
2023/03/25 00:39:06;;;;;;;10.52;8.10;;;;;;;14.39;64.58;99439.81;5056559;28;20103;-64
2023/03/25 00:41:34;;;;;;;11.20;7.93;;;;;;;14.26;64.97;99439.56;5053998;28;20048;-64
2023/03/25 00:44:00;;;;;;;11.35;8.82;;;;;;;14.31;65.36;99443.41;5061907;28;20040;-64
2023/03/25 00:46:29;;;;;;;12.13;9.18;;;;;;;14.26;65.71;99435.03;5061713;28;20029;-64
2023/03/25 00:48:55;;;;;;;10.63;8.43;;;;;;;14.19;65.97;99439.41;5053858;28;20060;-70
2023/03/25 00:51:22;;;;;;;10.38;8.38;;;;;;;14.12;66.73;99438.44;5062263;28;20534;-69
2023/03/25 00:53:53;;;;;;;13.18;9.18;;;;;;;14.11;66.89;99447.56;5052264;28;20029;-70
2023/03/25 00:56:20;;;;;;;12.23;9.18;;;;;;;14.07;67.18;99438.16;5060184;28;20036;-70
2023/03/25 00:58:46;;;;;;;13.27;9.45;;;;;;;14.04;67.81;99437.66;5062891;28;20024;-70
2023/03/25 01:01:14;;;;;;;13.13;9.35;;;;;;;13.98;67.46;99439.22;5050132;28;20032;-68
2023/03/25 01:03:42;;;;;;;16.42;9.32;;;;;;;14.00;67.79;99430.94;5063022;28;20029;-69
2023/03/25 01:06:09;;;;;;;12.07;9.32;;;;;;;13.94;68.39;99426.25;5055260;28;20074;-70
2023/03/25 01:08:34;;;;;;;15.80;9.65;;;;;;;13.99;68.81;99443.56;5054494;28;20020;-69
2023/03/25 01:11:00;;;;;;;15.80;8.98;;;;;;;13.95;68.84;99441.41;5066069;28;20047;-69
2023/03/25 01:13:25;;;;;;;11.68;9.45;;;;;;;13.97;68.57;99445.63;5067345;28;20036;-68
2023/03/25 01:15:50;;;;;;;12.52;9.48;;;;;;;13.99;69.31;99440.06;5054681;28;20050;-70
2023/03/25 01:18:16;;;;;;;13.90;10.43;;;;;;;13.94;69.14;99432.50;5048099;28;20125;-69
2023/03/25 01:20:42;;;;;;;13.02;9.95;;;;;;;14.21;69.31;99448.16;5061935;28;20043;-70
2023/03/25 01:23:10;;;;;;;14.60;9.35;;;;;;;14.14;69.29;99441.81;5058976;28;20752;-70
2023/03/25 01:25:36;;;;;;;11.93;10.02;;;;;;;14.18;69.62;99437.72;5060698;28;20424;-64
2023/03/25 01:28:03;;;;;;;11.70;9.63;;;;;;;14.19;70.21;99444.78;5051587;28;20025;-63
2023/03/25 01:30:29;;;;;;;10.38;8.55;;;;;;;14.06;71.14;99422.97;5059044;28;20037;-64
2023/03/25 01:32:54;;;;;;;12.95;9.13;;;;;;;14.05;70.63;99431.25;5054396;28;20024;-65
2023/03/25 01:35:20;;;;;;;14.05;9.48;;;;;;;14.05;71.30;99445.56;5064772;28;20197;-65
2023/03/25 01:37:45;;;;;;;13.32;9.10;;;;;;;14.09;71.41;99437.97;5066667;28;20029;-64
2023/03/25 01:40:18;;;;;;;10.73;9.18;;;;;;;14.15;71.39;99443.47;5056933;28;20222;-65
2023/03/25 01:42:43;;;;;;;11.82;9.13;;;;;;;14.12;72.15;99440.31;5053124;28;20512;-65
2023/03/25 01:45:15;;;;;;;15.07;9.40;;;;;;;14.05;72.91;99439.31;5051141;28;20028;-65
2023/03/25 01:47:42;;;;;;;13.02;9.68;;;;;;;13.96;73.18;99430.44;5067200;28;20024;-64
2023/03/25 01:50:09;;;;;;;15.65;9.88;;;;;;;13.88;74.33;99414.34;5063905;28;20033;-71
2023/03/25 01:52:35;;;;;;;13.20;9.55;;;;;;;13.92;74.32;99437.22;5050212;28;20108;-71
2023/03/25 01:55:01;;;;;;;14.25;10.10;;;;;;;13.80;75.02;99427.03;5054843;28;20154;-69
2023/03/25 01:57:29;;;;;;;14.55;9.82;;;;;;;13.66;75.31;99424.06;5047060;28;20036;-70
2023/03/25 01:59:55;;;;;;;11.43;10.15;;;;;;;13.71;76.03;99456.69;5061453;28;20103;-70
2023/03/25 02:02:24;;;;;;;10.80;9.13;;;;;;;13.72;76.65;99446.78;5062008;28;20162;-70
2023/03/25 02:04:57;;;;;;;15.35;9.93;;;;;;;13.70;77.34;99452.34;5058304;28;20032;-70
2023/03/25 02:07:29;;;;;;;14.32;9.63;;;;;;;13.68;77.57;99438.19;5060010;28;20033;-71
2023/03/25 02:10:01;;;;;;;14.27;10.35;;;;;;;13.87;77.66;99450.41;5051789;28;20371;-70
2023/03/25 02:12:26;;;;;;;14.07;9.32;;;;;;;13.85;77.75;99443.50;5053565;28;20032;-70
2023/03/25 02:14:53;;;;;;;18.42;11.20;;;;;;;13.85;78.30;99446.19;5058154;28;20405;-71
2023/03/25 02:17:24;;;;;;;15.25;11.13;;;;;;;13.91;78.82;99451.72;5051455;28;20083;-70
2023/03/25 02:20:08;;;;;;;16.73;11.50;;;;;;;13.87;79.22;99455.81;5055344;28;20036;-70
2023/03/25 02:23:11;;;;;;;17.33;13.35;;;;;;;13.84;79.79;99456.16;5051182;28;20140;-70
2023/03/25 02:25:59;;;;;;;25.67;14.93;;;;;;;14.09;79.41;99459.53;5044475;28;20040;-70
2023/03/25 02:28:28;;;;;;;19.02;14.10;;;;;;;14.03;79.38;99455.72;5062590;28;20033;-65
2023/03/25 02:31:14;;;;;;;25.15;15.82;;;;;;;14.15;79.57;99456.16;5048060;28;20033;-65
2023/03/25 02:34:07;;;;;;;23.75;15.30;;;;;;;14.24;79.08;99457.78;5046962;28;20039;-63
2023/03/25 02:36:51;;;;;;;22.50;14.65;;;;;;;14.32;78.60;99461.25;5047328;28;20033;-64
2023/03/25 02:39:46;;;;;;;16.33;13.50;;;;;;;14.26;78.70;99467.41;5046289;28;20036;-64
2023/03/25 02:42:36;;;;;;;18.65;12.02;;;;;;;14.37;78.86;99453.47;5043987;28;20386;-64
2023/03/25 02:45:09;;;;;;;16.55;11.38;;;;;;;14.32;78.99;99455.84;5045871;28;20094;-64
2023/03/25 02:47:41;;;;;;;15.02;8.93;;;;;;;14.43;79.30;99458.16;5049727;28;20037;-65
2023/03/25 02:50:16;;;;;;;12.85;9.25;;;;;;;14.46;79.31;99462.34;5054523;28;20710;-65
2023/03/25 02:52:49;;;;;;;11.75;7.90;;;;;;;14.41;79.59;99456.66;5058170;28;20430;-65
2023/03/25 02:55:18;;;;;;;7.55;6.60;;;;;;;14.53;78.71;99468.69;5051230;28;20139;-70
2023/03/25 02:57:51;;;;;;;9.05;5.68;;;;;;;14.62;79.01;99457.69;5056405;28;20032;-70
2023/03/25 03:00:23;;;;;;;10.00;5.22;;;;;;;14.69;78.87;99450.53;5048431;28;20029;-71
2023/03/25 03:02:58;;;;;;;7.35;4.95;;;;;;;14.79;78.60;99452.97;5056752;28;20028;-71
2023/03/25 03:05:29;;;;;;;9.55;4.80;;;;;;;14.66;79.27;99466.22;5051531;28;20510;-71
2023/03/25 03:08:13;;;;;;;6.63;4.53;;;;;;;14.77;79.54;99466.63;5059767;28;20089;-70
2023/03/25 03:10:58;;;;;;;6.38;4.45;;;;;;;14.73;80.39;99461.78;5054168;28;20023;-71
2023/03/25 03:13:23;;;;;;;5.22;3.55;;;;;;;14.75;80.32;99466.00;5052065;28;20025;-69
2023/03/25 03:16:24;;;;;;;5.38;3.60;;;;;;;14.69;81.28;99466.72;5048768;28;20025;-69
2023/03/25 03:19:01;;;;;;;5.45;4.07;;;;;;;14.79;81.97;99471.84;5057985;28;20069;-72
2023/03/25 03:21:39;;;;;;;5.95;3.85;;;;;;;14.85;81.68;99490.88;5057171;28;20064;-71
2023/03/25 03:24:23;;;;;;;6.03;4.00;;;;;;;14.87;81.84;99485.31;5054072;28;20025;-69
2023/03/25 03:27:13;;;;;;;6.38;3.78;;;;;;;14.84;81.88;99488.34;5058501;28;20021;-71
2023/03/25 03:29:53;;;;;;;5.22;3.28;;;;;;;14.80;82.12;99481.66;5056708;28;20539;-70
2023/03/25 03:32:31;;;;;;;4.90;3.30;;;;;;;14.82;82.51;99496.63;5055971;28;20554;-71
2023/03/25 03:35:06;;;;;;;5.32;3.63;;;;;;;14.79;82.86;99491.59;5055952;28;20020;-70
2023/03/25 03:37:36;;;;;;;5.07;3.40;;;;;;;14.80;83.16;99495.16;5060678;28;20041;-71
2023/03/25 03:40:07;;;;;;;5.60;3.42;;;;;;;14.79;82.65;99486.19;5054213;28;20222;-68
2023/03/25 03:42:48;;;;;;;6.93;3.40;;;;;;;14.75;83.31;99492.13;5054225;28;20025;-69
2023/03/25 03:45:33;;;;;;;5.88;2.67;;;;;;;14.66;83.47;99498.63;5065507;28;20035;-70
2023/03/25 03:48:01;;;;;;;3.33;2.60;;;;;;;14.65;84.25;99505.91;5050399;28;20025;-63
2023/03/25 03:50:35;;;;;;;3.45;2.80;;;;;;;14.66;83.99;99517.50;5055057;28;20048;-64
2023/03/25 03:53:33;;;;;;;3.17;2.88;;;;;;;14.76;83.73;99518.97;5042683;28;20114;-63
2023/03/25 03:56:07;;;;;;;4.57;2.65;;;;;;;14.71;84.45;99515.13;5047615;28;20079;-64
2023/03/25 03:58:37;;;;;;;14.60;3.17;;;;;;;14.64;85.27;99525.78;5054553;28;20120;-63
2023/03/25 04:01:15;;;;;;;5.70;3.35;;;;;;;14.60;85.05;99510.97;5053399;28;20067;-64
2023/03/25 04:03:54;;;;;;;6.28;3.15;;;;;;;14.51;86.39;99520.16;5059538;28;20370;-65
2023/03/25 04:06:28;;;;;;;4.13;3.03;;;;;;;14.57;85.84;99513.22;5048298;28;20028;-64
2023/03/25 04:09:03;;;;;;;4.72;2.97;;;;;;;14.55;86.09;99516.09;5050460;28;20511;-62
2023/03/25 04:11:40;;;;;;;7.10;3.05;;;;;;;14.52;85.86;99521.00;5057473;28;20055;-63
2023/03/25 04:14:08;;;;;;;4.78;3.17;;;;;;;14.53;85.28;99523.50;5051172;28;20122;-63
2023/03/25 04:16:36;;;;;;;3.20;2.53;;;;;;;14.40;85.33;99527.81;5059855;28;20475;-63
2023/03/25 04:19:03;;;;;;;3.13;2.47;;;;;;;14.29;84.91;99510.19;5056085;28;20052;-63
2023/03/25 04:21:28;;;;;;;4.38;2.33;;;;;;;14.36;84.23;99537.28;5054336;28;20563;-63
2023/03/25 04:23:54;;;;;;;4.35;2.15;;;;;;;14.37;83.88;99547.91;5047897;28;20047;-64
2023/03/25 04:26:20;;;;;;;4.15;2.58;;;;;;;14.45;84.03;99550.53;5065782;28;20482;-63
2023/03/25 04:28:46;;;;;;;3.85;2.50;;;;;;;14.36;83.80;99554.31;5067904;28;20036;-63
2023/03/25 04:31:15;;;;;;;5.78;2.33;;;;;;;14.40;83.42;99555.63;5064387;28;20040;-63
2023/03/25 04:33:45;;;;;;;2.90;2.10;;;;;;;14.37;83.91;99558.69;5051523;28;20024;-63
2023/03/25 04:36:12;;;;;;;2.40;2.10;;;;;;;14.39;84.18;99558.50;5051130;28;20048;-63
2023/03/25 04:38:37;;;;;;;3.60;2.20;;;;;;;14.33;84.66;99554.66;5058000;28;20522;-63
2023/03/25 04:41:05;;;;;;;3.70;2.13;;;;;;;14.14;84.94;99521.84;5055630;28;20024;-64
2023/03/25 04:43:31;;;;;;;2.35;1.73;;;;;;;14.12;85.53;99554.38;5054996;28;20477;-63
2023/03/25 04:45:58;;;;;;;2.35;1.88;;;;;;;14.27;85.40;99557.22;5067776;28;20031;-63
2023/03/25 04:48:29;;;;;;;2.78;2.20;;;;;;;14.17;86.42;99554.72;5057365;28;20470;-63
2023/03/25 04:51:00;;;;;;;2.25;1.70;;;;;;;14.10;86.38;99566.38;5066274;28;20471;-62
2023/03/25 04:53:26;;;;;;;1.83;1.50;;;;;;;14.10;86.53;99566.38;5061403;28;20032;-64
2023/03/25 04:55:53;;;;;;;2.00;1.65;;;;;;;13.93;86.67;99557.50;5052495;28;20423;-63
2023/03/25 04:58:19;;;;;;;1.85;1.75;;;;;;;14.15;87.19;99572.91;5046032;28;20021;-63
2023/03/25 05:00:49;;;;;;;2.85;1.63;;;;;;;14.17;87.44;99576.28;5058028;28;20043;-70
2023/03/25 05:03:14;;;;;;;2.45;1.90;;;;;;;14.04;87.92;99592.19;5065095;28;20039;-69
2023/03/25 05:05:41;;;;;;;4.90;1.80;;;;;;;13.99;88.03;99591.84;5051068;28;20048;-70
2023/03/25 05:08:06;;;;;;;4.43;1.73;;;;;;;14.02;87.90;99610.38;5049208;28;20017;-69
2023/03/25 05:10:34;;;;;;;5.57;2.38;;;;;;;13.95;89.10;99608.56;5051162;28;20064;-70
2023/03/25 05:13:05;;;;;;;2.90;2.60;;;;;;;13.91;90.41;99624.25;5051659;28;20059;-70
2023/03/25 05:15:38;;;;;;;1.85;1.65;;;;;;;13.70;91.62;99615.88;5049262;28;20036;-70
2023/03/25 05:18:12;;;;;;;3.25;2.20;;;;;;;13.78;94.53;99618.56;5048395;28;20424;-70
2023/03/25 05:20:39;;;;;;;6.57;2.50;;;;;;;13.77;95.86;99622.28;5046558;28;20114;-64
2023/03/25 05:23:11;;;;;;;2.97;2.10;;;;;;;13.59;96.14;99610.84;5046125;28;20033;-64
2023/03/25 05:25:38;;;;;;;2.60;2.40;;;;;;;13.64;97.60;99630.88;5048405;28;20033;-64
2023/03/25 05:28:04;;;;;;;5.03;2.33;;;;;;;13.58;98.09;99625.34;5045958;28;20099;-63
2023/03/25 05:30:31;;;;;;;5.03;2.60;;;;;;;13.42;99.96;99623.47;5047360;28;20028;-64
2023/03/25 05:32:58;;;;;;;4.40;2.92;;;;;;;13.43;100.00;99627.03;5049601;28;20103;-63
2023/03/25 05:47:52;;;;;;;5.53;3.30;;;;;;;13.41;100.00;99639.81;5123931;27;20665;-72
2023/03/25 05:50:18;;;;;;;4.25;3.30;;;;;;;13.25;100.00;99626.34;5122980;28;20031;-72
2023/03/25 05:52:48;;;;;;;3.58;2.40;;;;;;;13.16;100.00;99613.91;5125139;27;20027;-72
2023/03/25 05:55:16;;;;;;;3.15;2.10;;;;;;;13.26;100.00;99639.63;5123232;28;20023;-73
2023/03/25 05:57:42;;;;;;;2.92;2.00;;;;;;;13.08;100.00;99616.59;5122843;27;20043;-73
2023/03/25 06:00:10;;;;;;;2.50;2.00;;;;;;;13.18;100.00;99641.50;5122603;27;20054;-73
2023/03/25 06:02:38;;;;;;;2.53;1.70;;;;;;;13.23;100.00;99650.75;5124700;27;20389;-72
2023/03/25 06:05:05;;;;;;;2.13;1.80;;;;;;;13.21;100.00;99644.72;5123888;27;20023;-72
2023/03/25 06:07:31;;;;;;;4.15;2.42;;;;;;;13.16;100.00;99646.22;5122683;28;20024;-73
2023/03/25 06:09:56;;;;;;;3.22;2.20;;;;;;;13.28;100.00;99659.19;5123247;28;20545;-72
2023/03/25 06:12:26;;;;;;;2.65;1.92;;;;;;;13.24;100.00;99641.69;5122301;27;20031;-73
2023/03/25 06:14:52;;;;;;;4.07;1.90;;;;;;;13.23;100.00;99655.31;5122374;28;20015;-73
2023/03/25 06:17:21;;;;;;;2.63;1.67;;;;;;;13.26;100.00;99654.97;5123868;27;20464;-73
2023/03/25 06:19:50;;;;;;;2.40;1.88;;;;;;;13.11;100.00;99657.50;5124571;27;20385;-72
2023/03/25 06:22:19;;;;;;;3.55;1.83;;;;;;;13.05;100.00;99666.22;5120192;28;20054;-73
2023/03/25 06:24:45;;;;;;;1.60;1.42;;;;;;;13.00;100.00;99670.44;5124011;27;20023;-73
2023/03/25 06:27:13;;;;;;;2.13;1.60;;;;;;;12.64;100.00;99634.81;5122147;28;20027;-72
2023/03/25 06:29:41;;;;;;;2.00;1.58;;;;;;;12.93;100.00;99680.16;5122693;27;20031;-71
2023/03/25 06:32:08;;;;;;;3.60;1.50;;;;;;;12.85;100.00;99658.59;5122595;28;20039;-71
2023/03/25 06:34:43;;;;;;;3.00;1.88;;;;;;;12.89;100.00;99674.25;5122958;27;20038;-73
2023/03/25 06:37:09;;;;;;;3.65;1.80;;;;;;;12.93;100.00;99674.78;5121808;28;20077;-72
2023/03/25 06:39:36;;;;;;;2.90;1.60;;;;;;;12.93;100.00;99669.38;5123224;27;20050;-72
2023/03/25 06:42:04;;;;;;;2.83;1.38;;;;;;;12.90;100.00;99673.22;5122164;28;20477;-70
2023/03/25 06:44:29;;;;;;;2.83;1.70;;;;;;;12.96;100.00;99694.09;5121868;27;20027;-71
2023/03/25 06:46:55;;;;;;;2.45;1.90;;;;;;;12.91;100.00;99688.38;5120100;27;20050;-71
2023/03/25 06:49:21;;;;;;;4.03;2.00;;;;;;;12.84;100.00;99687.34;5109933;28;20071;-71
2023/03/25 06:51:46;;;;;;;2.70;2.13;;;;;;;12.85;100.00;99701.63;5109887;28;20371;-70
2023/03/25 06:54:12;;;;;;;3.33;1.88;;;;;;;12.75;100.00;99690.19;5109503;28;20046;-70
2023/03/25 06:56:37;;;;;;;4.07;2.78;;;;;;;12.80;100.00;99696.75;5109576;28;20027;-69
2023/03/25 06:59:03;;;;;;;5.72;2.30;;;;;;;12.80;100.00;99701.31;5109402;28;20161;-70
2023/03/25 07:01:29;;;;;;;3.15;2.40;;;;;;;12.73;100.00;99693.03;5109627;28;20588;-69
2023/03/25 07:03:55;;;;;;;3.13;2.60;;;;;;;12.65;100.00;99684.94;5109204;28;20032;-69
2023/03/25 07:06:22;;;;;;;6.28;2.45;;;;;;;12.81;100.00;99702.97;5109271;28;20030;-70
2023/03/25 07:08:48;;;;;;;3.85;2.10;;;;;;;12.75;100.00;99703.63;5108066;28;20024;-70
2023/03/25 07:11:17;;;;;;;4.70;3.00;;;;;;;12.75;100.00;99709.00;5108593;28;20114;-69
2023/03/25 07:13:42;;;;;;;4.53;2.55;;;;;;;12.70;100.00;99706.81;5108416;28;20027;-70
2023/03/25 07:16:08;;;;;;;4.20;2.60;;;;;;;12.70;100.00;99705.97;5108580;28;20032;-70
2023/03/25 07:18:34;;;;;;;7.30;2.38;;;;;;;12.71;100.00;99696.91;5107455;28;20027;-69
2023/03/25 07:21:00;;;;;;;3.60;2.63;;;;;;;12.73;100.00;99700.25;5110057;28;20034;-69
2023/03/25 07:23:25;;;;;;;4.22;2.30;;;;;;;12.59;100.00;99700.88;5110459;28;20032;-72
2023/03/25 07:25:51;;;;;;;3.00;2.35;;;;;;;12.67;100.00;99688.31;5110378;28;20035;-72
2023/03/25 07:28:18;;;;;;;3.92;2.25;;;;;;;12.76;100.00;99705.31;5113376;28;20042;-72
2023/03/25 07:30:43;;;;;;;2.92;2.33;;;;;;;12.87;100.00;99711.22;5110203;28;20358;-72
2023/03/25 07:33:09;;;;;;;4.80;3.10;;;;;;;12.99;100.00;99707.25;5108490;28;20030;-71
2023/03/25 07:35:34;;;;;;;5.20;3.80;;;;;;;13.01;100.00;99720.56;5111094;28;20032;-71
2023/03/25 07:38:01;;;;;;;7.45;4.55;;;;;;;12.89;100.00;99711.91;5111584;28;20027;-72
2023/03/25 07:40:27;;;;;;;5.78;4.22;;;;;;;12.86;100.00;99711.41;5114189;28;20511;-72
2023/03/25 07:42:52;;;;;;;8.70;5.72;;;;;;;12.91;100.00;99712.59;5110391;28;20107;-73
2023/03/25 07:45:18;;;;;;;12.52;6.88;;;;;;;12.82;100.00;99704.66;5109586;28;20036;-70
2023/03/25 07:47:48;;;;;;;13.85;7.60;;;;;;;13.12;100.00;99706.78;5109457;28;20051;-70
2023/03/25 07:50:16;;;;;;;9.55;6.85;;;;;;;13.12;100.00;99706.78;5109573;28;20055;-70
2023/03/25 07:52:42;;;;;;;10.88;7.70;;;;;;;13.25;100.00;99701.75;5107160;28;20061;-71
2023/03/25 07:55:07;;;;;;;14.57;8.02;;;;;;;13.30;100.00;99699.41;5106705;28;20359;-71
2023/03/25 07:57:33;;;;;;;10.98;7.25;;;;;;;13.32;100.00;99709.00;5109312;28;20031;-70
2023/03/25 07:59:58;;;;;;;11.02;7.65;;;;;;;13.23;100.00;99701.09;5108819;28;20028;-70
2023/03/25 08:02:24;;;;;;;10.65;6.13;;;;;;;13.34;100.00;99709.69;5107239;28;20023;-71
2023/03/25 08:04:49;;;;;;;8.00;6.50;;;;;;;13.40;100.00;99716.25;5103780;28;20054;-71
2023/03/25 08:07:15;;;;;;;10.05;7.10;;;;;;;13.30;100.00;99702.09;5106276;28;20034;-71
2023/03/25 08:09:41;;;;;;;7.65;5.80;;;;;;;13.30;100.00;99710.19;5108352;28;20119;-71
2023/03/25 08:12:07;;;;;;;9.45;5.30;;;;;;;13.46;100.00;99724.53;5108594;28;20032;-71
2023/03/25 08:14:33;;;;;;;7.40;5.28;;;;;;;13.41;100.00;99717.91;5107064;28;20023;-71
2023/03/25 08:16:58;;;;;;;6.85;5.28;;;;;;;13.48;100.00;99721.66;5107109;28;20379;-71
2023/03/25 08:19:24;;;;;;;12.38;5.70;;;;;;;13.60;100.00;99725.69;5108655;28;20480;-70
2023/03/25 08:21:49;;;;;;;6.22;4.78;;;;;;;13.57;100.00;99715.25;5107089;28;20031;-70
2023/03/25 08:24:15;;;;;;;8.50;5.93;;;;;;;13.85;100.00;99718.44;5106892;28;20649;-71
2023/03/25 08:26:41;;;;;;;9.10;5.18;;;;;;;13.91;100.00;99724.00;5103415;28;20016;-71
2023/03/25 08:29:08;;;;;;;9.05;5.35;;;;;;;14.04;100.00;99715.38;5105777;28;20466;-71
2023/03/25 08:31:37;;;;;;;9.43;4.63;;;;;;;14.26;100.00;99726.34;5107197;28;20019;-71
2023/03/25 08:34:04;;;;;;;7.60;4.85;;;;;;;14.37;100.00;99720.56;5104453;28;20097;-70
2023/03/25 08:36:30;;;;;;;8.05;5.18;;;;;;;14.62;99.33;99716.75;5105913;28;20055;-71
2023/03/25 08:38:55;;;;;;;8.27;5.38;;;;;;;15.03;98.16;99720.94;5103952;28;20097;-71
2023/03/25 08:41:21;;;;;;;6.40;4.60;;;;;;;15.49;94.60;99724.56;5106396;28;20306;-71
2023/03/25 08:43:46;;;;;;;7.60;5.10;;;;;;;15.99;89.23;99719.38;5107743;28;20106;-70
2023/03/25 08:46:12;;;;;;;6.70;4.43;;;;;;;16.77;80.75;99719.75;5106664;28;20201;-72
2023/03/25 08:48:38;;;;;;;6.93;4.35;;;;;;;16.92;79.46;99723.25;5103214;28;20031;-72
2023/03/25 08:51:05;;;;;;;4.63;4.10;;;;;;;17.41;76.87;99713.41;5109343;28;20027;-72
2023/03/25 08:53:31;;;;;;;5.50;4.40;;;;;;;18.36;70.69;99711.94;5107874;28;20076;-71
2023/03/25 08:55:58;;;;;;;7.90;4.32;;;;;;;18.50;69.63;99698.28;5107574;28;20409;-71
2023/03/25 08:58:25;;;;;;;5.18;3.50;;;;;;;19.01;64.56;99702.28;5107986;28;20028;-71
2023/03/25 09:00:54;;;;;;;6.43;3.75;;;;;;;20.06;61.73;99690.53;5108242;28;20091;-71
2023/03/25 09:03:21;;;;;;;5.90;3.60;;;;;;;22.15;54.70;99703.25;5106730;28;20042;-72
2023/03/25 09:05:47;;;;;;;4.13;2.95;;;;;;;23.15;50.33;99692.69;5106052;28;20383;-72
2023/03/25 09:08:13;;;;;;;8.75;2.80;;;;;;;23.86;46.54;99673.56;5106939;28;20034;-70
2023/03/25 09:10:39;;;;;;;4.07;2.05;;;;;;;23.21;48.16;99685.47;5108139;27;20027;-72
2023/03/25 09:13:05;;;;;;;2.80;1.88;;;;;;;22.72;47.36;99700.19;5106457;28;20032;-71
2023/03/25 09:15:30;;;;;;;3.38;2.40;;;;;;;22.56;48.41;99698.03;5105417;28;20022;-71
2023/03/25 09:17:56;;;;;;;4.82;2.22;;;;;;;23.29;47.47;99694.22;5107602;28;20023;-71
2023/03/25 09:20:22;;;;;;;3.40;1.90;;;;;;;24.35;43.79;99684.94;5107357;28;20114;-72
2023/03/25 09:22:48;;;;;;;5.13;2.17;;;;;;;23.98;44.64;99678.00;5105794;28;20122;-72
2023/03/25 09:25:14;;;;;;;4.20;2.35;;;;;;;23.86;45.26;99696.31;5107282;28;20028;-71
2023/03/25 09:27:39;;;;;;;3.33;1.70;;;;;;;23.69;44.94;99694.47;5105787;28;20569;-72
2023/03/25 09:30:06;;;;;;;5.47;2.38;;;;;;;23.51;43.79;99676.19;5107544;28;20024;-71
2023/03/25 09:32:32;;;;;;;3.80;2.20;;;;;;;23.64;43.07;99665.03;5107188;28;20036;-72
2023/03/25 09:34:58;;;;;;;3.05;1.60;;;;;;;23.37;43.54;99682.94;5107234;28;20439;-72
2023/03/25 09:37:23;;;;;;;4.20;1.60;;;;;;;23.37;43.25;99677.47;5105956;28;20126;-72
2023/03/25 09:39:49;;;;;;;4.55;1.80;;;;;;;22.52;44.97;99683.16;5107283;28;20123;-72
2023/03/25 09:42:33;;;;;;;2.83;1.80;;;;;;;22.42;45.17;99695.63;5106422;28;20039;-72
2023/03/25 09:45:39;;;;;;;6.43;2.08;;;;;;;21.74;46.84;99697.50;5107235;28;20442;-72
2023/03/25 09:48:35;;;;;;;4.95;1.92;;;;;;;21.52;48.46;99701.63;5106847;28;20450;-71
2023/03/25 09:51:05;;;;;;;3.70;2.03;;;;;;;21.59;48.91;99686.03;5106335;28;20039;-72
2023/03/25 09:53:35;;;;;;;2.92;1.80;;;;;;;21.99;46.42;99692.91;5105819;28;20390;-71
2023/03/25 09:56:05;;;;;;;4.45;2.05;;;;;;;21.71;47.61;99676.09;5107629;28;20023;-71
2023/03/25 09:58:43;;;;;;;2.78;1.60;;;;;;;22.37;46.02;99676.38;5107536;28;20482;-71
2023/03/25 10:01:38;;;;;;;7.13;2.08;;;;;;;23.08;44.58;99681.00;5107240;28;20028;-71
2023/03/25 10:04:32;;;;;;;3.65;1.52;;;;;;;23.52;42.85;99685.25;5103104;28;20054;-72
2023/03/25 10:07:14;;;;;;;2.00;1.55;;;;;;;23.50;42.17;99669.06;5105677;28;20132;-72
2023/03/25 10:10:00;;;;;;;4.53;1.75;;;;;;;24.48;39.06;99681.94;5105885;28;20055;-72
2023/03/25 10:12:52;;;;;;;3.75;1.42;;;;;;;24.18;39.49;99667.53;5100174;28;20098;-73
2023/03/25 10:15:38;;;;;;;4.28;1.67;;;;;;;24.17;38.94;99671.38;5097738;28;20134;-72
2023/03/25 10:18:13;;;;;;;2.22;1.25;;;;;;;23.64;40.05;99673.25;5106236;28;20401;-73
2023/03/25 10:21:01;;;;;;;6.30;1.92;;;;;;;22.70;41.76;99671.41;5107147;28;20505;-72
2023/03/25 10:23:42;;;;;;;4.15;1.85;;;;;;;21.97;43.38;99663.09;5109821;28;20106;-72
2023/03/25 10:26:39;;;;;;;3.20;1.52;;;;;;;22.09;43.61;99671.38;5111501;28;20490;-72
2023/03/25 10:29:11;;;;;;;2.72;1.83;;;;;;;21.64;45.09;99667.13;5109231;28;20028;-72
2023/03/25 10:31:42;;;;;;;12.00;2.35;;;;;;;21.45;45.47;99659.91;5107256;28;20780;-71
2023/03/25 10:34:17;;;;;;;1.88;1.48;;;;;;;21.33;45.56;99657.03;5110801;28;20019;-72
2023/03/25 10:36:50;;;;;;;2.88;1.83;;;;;;;21.15;45.16;99662.38;5108526;28;20163;-72
2023/03/25 10:39:20;;;;;;;4.50;1.83;;;;;;;20.66;45.15;99655.88;5110441;28;20613;-73
2023/03/25 10:42:11;;;;;;;3.95;1.92;;;;;;;20.57;44.75;99678.97;5109992;28;20394;-71
2023/03/25 10:44:36;;;;;;;7.40;2.00;;;;;;;20.49;44.95;99673.75;5109135;28;20513;-71
2023/03/25 10:47:17;;;;;;;5.03;1.55;;;;;;;20.43;44.79;99670.00;5110336;28;20059;-71
2023/03/25 10:49:45;;;;;;;7.55;1.85;;;;;;;20.26;45.06;99676.09;5098674;28;20089;-71
2023/03/25 10:52:11;;;;;;;10.65;1.77;;;;;;;19.92;46.34;99674.41;5100365;28;20035;-71
2023/03/25 10:54:41;;;;;;;6.45;1.50;;;;;;;19.81;46.02;99667.75;5102391;28;20028;-71
2023/03/25 10:57:09;;;;;;;3.05;1.60;;;;;;;19.60;47.29;99684.25;5102734;28;20024;-72
2023/03/25 10:59:53;;;;;;;5.53;1.65;;;;;;;19.85;46.67;99685.31;5102286;28;20023;-71
2023/03/25 11:02:24;;;;;;;2.67;1.60;;;;;;;19.79;46.05;99678.00;5106687;28;20156;-71
2023/03/25 11:05:03;;;;;;;5.65;1.73;;;;;;;19.78;46.63;99670.88;5104417;28;20081;-71
2023/03/25 11:07:36;;;;;;;2.67;1.70;;;;;;;19.52;47.66;99651.81;5106941;28;20032;-71
2023/03/25 11:10:25;;;;;;;3.05;1.60;;;;;;;19.61;46.84;99679.66;5102414;28;20035;-73
2023/03/25 11:12:52;;;;;;;3.50;1.67;;;;;;;19.32;46.46;99672.69;5101846;28;20359;-71
2023/03/25 11:15:28;;;;;;;3.75;1.90;;;;;;;19.31;46.43;99660.16;5098799;28;20035;-72
2023/03/25 11:18:21;;;;;;;3.58;1.58;;;;;;;19.09;47.75;99664.03;5102127;28;20032;-72
2023/03/25 11:20:56;;;;;;;2.97;1.50;;;;;;;18.79;48.72;99650.97;5098306;28;20098;-72
2023/03/25 11:23:32;;;;;;;6.95;2.10;;;;;;;18.80;49.40;99672.50;5100976;28;20090;-72
2023/03/25 11:26:22;;;;;;;4.50;1.70;;;;;;;18.69;48.88;99661.38;5101723;28;20028;-69
2023/03/25 11:28:50;;;;;;;9.77;2.72;;;;;;;18.62;51.27;99660.53;5103118;28;20036;-71
2023/03/25 11:31:22;;;;;;;5.45;2.28;;;;;;;18.64;51.34;99658.44;5104396;28;20039;-72
2023/03/25 11:34:06;;;;;;;6.57;2.88;;;;;;;18.72;52.30;99658.25;5101396;28;20016;-72
2023/03/25 11:36:36;;;;;;;3.97;2.75;;;;;;;18.77;53.11;99653.88;5101757;28;20469;-71
2023/03/25 11:39:14;;;;;;;5.15;3.45;;;;;;;18.89;51.29;99657.72;5104682;28;20039;-71
2023/03/25 11:41:40;;;;;;;4.28;3.03;;;;;;;18.84;51.98;99654.78;5104419;28;20027;-72
2023/03/25 11:44:06;;;;;;;5.70;3.08;;;;;;;18.57;52.59;99633.97;5095513;28;20031;-72
2023/03/25 11:46:34;;;;;;;5.55;2.88;;;;;;;18.38;53.64;99653.72;5106045;27;20073;-73
2023/03/25 11:49:10;;;;;;;4.03;2.47;;;;;;;18.27;56.86;99675.97;5102008;28;20047;-72
2023/03/25 11:51:36;;;;;;;5.78;4.03;;;;;;;18.13;57.23;99671.50;5102251;28;20047;-71
2023/03/25 11:54:07;;;;;;;7.03;2.95;;;;;;;17.91;59.37;99676.16;5101060;27;20043;-71
2023/03/25 11:56:36;;;;;;;7.43;2.85;;;;;;;17.59;61.26;99656.88;5099366;28;20028;-71
2023/03/25 11:59:08;;;;;;;9.00;3.05;;;;;;;17.40;63.06;99673.75;5096875;27;20124;-72